createdAt,value
2018-01-23T00:01:49.142Z,1012.87
2018-01-23T00:03:50.608Z,1012.90
2018-01-23T00:05:52.114Z,1012.91
2018-01-23T00:07:53.577Z,1012.87
2018-01-23T00:09:55.052Z,1012.83
2018-01-23T00:11:56.461Z,1012.84
2018-01-23T00:13:57.909Z,1012.86
2018-01-23T00:15:59.362Z,1012.93
2018-01-23T00:18:00.814Z,1012.92
2018-01-23T00:20:02.267Z,1012.86
2018-01-23T00:22:03.680Z,1012.85
2018-01-23T00:24:05.092Z,1012.87
2018-01-23T00:26:06.501Z,1012.79
2018-01-23T00:28:07.915Z,1012.88
2018-01-23T00:30:09.340Z,1012.91
2018-01-23T00:32:10.751Z,1012.91
2018-01-23T00:34:12.162Z,1012.95
2018-01-23T00:36:13.704Z,1012.92
2018-01-23T00:38:15.183Z,1012.99
2018-01-23T00:40:16.945Z,1013.01
2018-01-23T00:42:18.447Z,1013.03
2018-01-23T00:44:19.981Z,1013.01
2018-01-23T00:46:21.388Z,1012.96
2018-01-23T00:48:22.833Z,1013.01
2018-01-23T00:50:24.289Z,1012.98
2018-01-23T00:52:25.842Z,1012.98
2018-01-23T00:54:27.370Z,1012.99
2018-01-23T00:56:28.864Z,1012.98
2018-01-23T00:58:30.315Z,1012.94
2018-01-23T01:00:32.142Z,1013.03
2018-01-23T01:02:33.673Z,1013.11
2018-01-23T01:04:35.201Z,1013.12
2018-01-23T01:06:36.707Z,1013.11
2018-01-23T01:08:38.158Z,1013.13
2018-01-23T01:10:39.651Z,1013.09
2018-01-23T01:12:41.156Z,1013.09
2018-01-23T01:14:42.595Z,1013.07
2018-01-23T01:16:44.085Z,1013.08
2018-01-23T01:18:45.590Z,1013.06
2018-01-23T01:20:47.088Z,1013.06
2018-01-23T01:22:48.579Z,1013.04
2018-01-23T01:24:50.063Z,1013.06
2018-01-23T01:26:51.855Z,1013.10
2018-01-23T01:28:53.290Z,1013.16
2018-01-23T01:30:54.777Z,1013.32
2018-01-23T01:32:56.196Z,1013.34
2018-01-23T01:34:57.599Z,1013.29
2018-01-23T01:36:59.269Z,1013.40
2018-01-23T01:39:00.672Z,1013.41
2018-01-23T01:41:02.182Z,1013.39
2018-01-23T01:43:03.631Z,1013.31
2018-01-23T01:45:05.145Z,1013.32
2018-01-23T01:47:06.663Z,1013.41
2018-01-23T01:49:08.147Z,1013.38
2018-01-23T01:51:09.673Z,1013.44
2018-01-23T01:53:11.193Z,1013.40
2018-01-23T01:55:12.682Z,1013.41
2018-01-23T01:57:14.165Z,1013.52
2018-01-23T01:59:15.702Z,1013.55
2018-01-23T02:01:17.186Z,1013.62
2018-01-23T02:03:18.646Z,1013.63
2018-01-23T02:05:20.172Z,1013.64
2018-01-23T02:07:21.647Z,1013.69
2018-01-23T02:09:23.155Z,1013.67
2018-01-23T02:11:24.967Z,1013.69
2018-01-23T02:13:26.407Z,1013.67
2018-01-23T02:15:27.834Z,1013.69
2018-01-23T02:17:29.313Z,1013.68
2018-01-23T02:19:30.787Z,1013.65
2018-01-23T02:21:32.236Z,1013.68
2018-01-23T02:23:33.734Z,1013.69
2018-01-23T02:25:35.220Z,1013.69
2018-01-23T02:27:36.686Z,1013.66
2018-01-23T02:29:38.196Z,1013.72
2018-01-23T02:31:39.880Z,1013.76
2018-01-23T02:33:41.391Z,1013.72
2018-01-23T02:35:42.858Z,1013.71
2018-01-23T02:37:44.339Z,1013.73
2018-01-23T02:39:45.843Z,1013.71
2018-01-23T02:41:47.308Z,1013.75
2018-01-23T02:43:48.774Z,1013.78
2018-01-23T02:45:50.272Z,1013.79
2018-01-23T02:47:51.746Z,1013.86
2018-01-23T02:49:53.188Z,1013.85
2018-01-23T02:51:54.711Z,1013.91
2018-01-23T02:53:56.178Z,1013.97
2018-01-23T02:55:57.631Z,1013.96
2018-01-23T02:57:59.119Z,1014.07
2018-01-23T03:00:00.632Z,1014.08
2018-01-23T03:02:02.067Z,1014.07
2018-01-23T03:04:03.533Z,1014.06
2018-01-23T03:06:05.084Z,1014.12
2018-01-23T03:08:06.640Z,1014.18
2018-01-23T03:10:08.107Z,1014.22
2018-01-23T03:12:09.573Z,1014.20
2018-01-23T03:14:11.074Z,1014.23
2018-01-23T03:16:12.714Z,1014.27
2018-01-23T03:18:14.260Z,1014.26
2018-01-23T03:20:15.868Z,1014.30
2018-01-23T03:22:17.336Z,1014.32
2018-01-23T03:24:18.884Z,1014.32
2018-01-23T03:26:20.687Z,1014.32
2018-01-23T03:28:22.143Z,1014.35
2018-01-23T03:30:23.619Z,1014.35
2018-01-23T03:32:25.081Z,1014.36
2018-01-23T03:34:26.520Z,1014.35
2018-01-23T03:36:27.976Z,1014.32
2018-01-23T03:38:29.512Z,1014.35
2018-01-23T03:40:30.971Z,1014.40
2018-01-23T03:42:32.494Z,1014.37
2018-01-23T03:44:34.271Z,1014.41
2018-01-23T03:46:35.796Z,1014.43
2018-01-23T03:48:37.349Z,1014.47
2018-01-23T03:50:38.826Z,1014.52
2018-01-23T03:52:40.479Z,1014.58
2018-01-23T03:54:41.970Z,1014.55
2018-01-23T03:56:43.426Z,1014.57
2018-01-23T03:58:44.923Z,1014.59
2018-01-23T04:00:46.720Z,1014.56
2018-01-23T04:02:48.180Z,1014.56
2018-01-23T04:04:49.668Z,1014.53
2018-01-23T04:06:51.169Z,1014.55
2018-01-23T04:08:52.627Z,1014.56
2018-01-23T04:10:54.107Z,1014.61
2018-01-23T04:12:55.550Z,1014.66
2018-01-23T04:14:57.012Z,1014.72
2018-01-23T04:16:58.450Z,1014.74
2018-01-23T04:18:59.897Z,1014.77
2018-01-23T04:21:01.359Z,1014.78
2018-01-23T04:23:02.805Z,1014.72
2018-01-23T04:25:04.313Z,1014.78
2018-01-23T04:27:05.799Z,1014.79
2018-01-23T04:29:07.281Z,1014.83
2018-01-23T04:31:08.791Z,1014.80
2018-01-23T04:33:10.356Z,1014.80
2018-01-23T04:35:11.860Z,1014.84
2018-01-23T04:37:13.342Z,1014.85
2018-01-23T04:39:14.841Z,1014.86
2018-01-23T04:41:16.368Z,1014.81
2018-01-23T04:43:17.881Z,1014.82
2018-01-23T04:45:19.306Z,1014.90
2018-01-23T04:47:20.804Z,1014.94
2018-01-23T04:49:22.257Z,1014.94
2018-01-23T04:51:23.716Z,1014.99
2018-01-23T04:53:25.154Z,1015.02
2018-01-23T04:55:26.594Z,1015.00
2018-01-23T04:57:28.028Z,1015.01
2018-01-23T04:59:29.491Z,1014.99
2018-01-23T05:01:30.938Z,1014.98
2018-01-23T05:03:32.409Z,1015.02
2018-01-23T05:05:33.882Z,1015.04
2018-01-23T05:07:35.386Z,1015.05
2018-01-23T05:09:36.871Z,1015.05
2018-01-23T05:11:38.689Z,1015.05
2018-01-23T05:13:40.396Z,1015.04
2018-01-23T05:15:42.272Z,1015.11
2018-01-23T05:17:43.764Z,1015.11
2018-01-23T05:19:45.233Z,1015.12
2018-01-23T05:21:46.705Z,1015.12
2018-01-23T05:23:48.176Z,1015.14
2018-01-23T05:25:49.627Z,1015.12
2018-01-23T05:27:51.135Z,1015.09
2018-01-23T05:29:52.835Z,1015.10
2018-01-23T05:31:54.339Z,1015.16
2018-01-23T05:33:55.826Z,1015.18
2018-01-23T05:35:57.304Z,1015.16
2018-01-23T05:37:58.747Z,1015.19
2018-01-23T05:40:00.166Z,1015.21
2018-01-23T05:42:01.672Z,1015.26
2018-01-23T05:44:03.125Z,1015.29
2018-01-23T05:46:04.494Z,1015.25
2018-01-23T05:48:05.903Z,1015.26
2018-01-23T05:50:07.313Z,1015.31
2018-01-23T05:52:08.721Z,1015.32
2018-01-23T05:54:10.152Z,1015.36
2018-01-23T05:56:11.569Z,1015.35
2018-01-23T05:58:12.999Z,1015.32
2018-01-23T06:00:14.405Z,1015.36
2018-01-23T06:02:15.845Z,1015.36
2018-01-23T06:04:17.269Z,1015.39
2018-01-23T06:06:18.731Z,1015.41
2018-01-23T06:08:20.232Z,1015.44
2018-01-23T06:10:21.644Z,1015.46
2018-01-23T06:12:23.073Z,1015.49
2018-01-23T06:14:24.475Z,1015.46
2018-01-23T06:16:25.887Z,1015.50
2018-01-23T06:18:27.297Z,1015.49
2018-01-23T06:20:28.712Z,1015.48
2018-01-23T06:22:30.135Z,1015.50
2018-01-23T06:24:31.546Z,1015.60
2018-01-23T06:26:32.966Z,1015.62
2018-01-23T06:28:34.470Z,1015.58
2018-01-23T06:30:35.950Z,1015.60
2018-01-23T06:32:37.439Z,1015.61
2018-01-23T06:34:38.887Z,1015.59
2018-01-23T06:36:40.295Z,1015.58
2018-01-23T06:38:41.714Z,1015.67
2018-01-23T06:40:43.133Z,1015.59
2018-01-23T06:42:44.543Z,1015.58
2018-01-23T06:44:45.954Z,1015.60
2018-01-23T06:46:47.371Z,1015.62
2018-01-23T06:48:48.778Z,1015.62
2018-01-23T06:50:50.195Z,1015.67
2018-01-23T06:52:51.609Z,1015.66
2018-01-23T06:54:53.026Z,1015.70
2018-01-23T06:56:54.434Z,1015.78
2018-01-23T06:58:55.837Z,1015.79
2018-01-23T07:00:57.252Z,1015.81
2018-01-23T07:02:58.660Z,1015.80
2018-01-23T07:05:00.057Z,1015.77
2018-01-23T07:07:01.469Z,1015.80
2018-01-23T07:09:02.884Z,1015.80
2018-01-23T07:11:04.308Z,1015.87
2018-01-23T07:13:05.715Z,1015.89
2018-01-23T07:15:07.117Z,1015.84
2018-01-23T07:17:08.585Z,1015.86
2018-01-23T07:19:10.046Z,1015.93
2018-01-23T07:21:11.535Z,1015.96
2018-01-23T07:23:12.974Z,1016.00
2018-01-23T07:25:14.379Z,1015.97
2018-01-23T07:27:15.803Z,1015.98
2018-01-23T07:29:17.213Z,1016.04
2018-01-23T07:31:18.641Z,1016.05
2018-01-23T07:33:20.061Z,1016.09
2018-01-23T07:35:21.485Z,1016.09
2018-01-23T07:37:22.889Z,1016.06
2018-01-23T07:39:24.301Z,1016.12
2018-01-23T07:41:25.712Z,1016.10
2018-01-23T07:43:27.120Z,1016.11
2018-01-23T07:45:28.538Z,1016.08
2018-01-23T07:47:29.948Z,1016.11
2018-01-23T07:49:31.368Z,1016.13
2018-01-23T07:51:32.776Z,1016.15
2018-01-23T07:53:34.218Z,1016.20
2018-01-23T07:55:35.678Z,1016.17
2018-01-23T07:57:37.074Z,1016.14
2018-01-23T07:59:38.477Z,1016.16
2018-01-23T08:01:39.899Z,1016.23
2018-01-23T08:03:41.308Z,1016.24
2018-01-23T08:05:42.725Z,1016.26
2018-01-23T08:07:44.135Z,1016.27
2018-01-23T08:09:45.549Z,1016.28
2018-01-23T08:11:46.961Z,1016.29
2018-01-23T08:13:48.379Z,1016.29
2018-01-23T08:15:49.796Z,1016.31
2018-01-23T08:17:51.209Z,1016.32
2018-01-23T08:19:52.768Z,1016.36
2018-01-23T08:21:54.195Z,1016.44
2018-01-23T08:23:55.603Z,1016.39
2018-01-23T08:25:57.038Z,1016.37
2018-01-23T08:27:58.435Z,1016.45
2018-01-23T08:29:59.846Z,1016.47
2018-01-23T08:32:01.262Z,1016.40
2018-01-23T08:34:02.683Z,1016.44
2018-01-23T08:36:04.100Z,1016.36
2018-01-23T08:38:05.511Z,1016.37
2018-01-23T08:40:06.946Z,1016.40
2018-01-23T08:42:08.369Z,1016.37
2018-01-23T08:44:09.785Z,1016.40
2018-01-23T08:46:11.202Z,1016.37
2018-01-23T08:48:12.613Z,1016.39
2018-01-23T08:50:14.029Z,1016.38
2018-01-23T08:52:15.442Z,1016.41
2018-01-23T08:54:16.858Z,1016.44
2018-01-23T08:56:18.265Z,1016.37
2018-01-23T08:58:19.685Z,1016.36
2018-01-23T09:00:21.087Z,1016.46
2018-01-23T09:02:22.513Z,1016.47
2018-01-23T09:04:23.927Z,1016.49
2018-01-23T09:06:25.340Z,1016.45
2018-01-23T09:08:26.755Z,1016.48
2018-01-23T09:10:28.170Z,1016.45
2018-01-23T09:12:29.584Z,1016.48
2018-01-23T09:14:30.996Z,1016.41
2018-01-23T09:16:32.412Z,1016.43
2018-01-23T09:18:33.832Z,1016.35
2018-01-23T09:20:35.240Z,1016.40
2018-01-23T09:22:36.655Z,1016.41
2018-01-23T09:24:38.123Z,1016.39
2018-01-23T09:26:39.623Z,1016.33
2018-01-23T09:28:41.121Z,1016.39
2018-01-23T09:30:42.537Z,1016.41
2018-01-23T09:32:43.944Z,1016.39
2018-01-23T09:34:45.356Z,1016.36
2018-01-23T09:36:46.785Z,1016.40
2018-01-23T09:38:48.195Z,1016.37
2018-01-23T09:40:49.693Z,1016.30
2018-01-23T09:42:51.110Z,1016.38
2018-01-23T09:44:52.526Z,1016.39
2018-01-23T09:46:54.042Z,1016.42
2018-01-23T09:48:55.482Z,1016.47
2018-01-23T09:50:56.898Z,1016.45
2018-01-23T09:52:58.310Z,1016.50
2018-01-23T09:54:59.723Z,1016.49
2018-01-23T09:57:01.139Z,1016.53
2018-01-23T09:59:02.570Z,1016.53
2018-01-23T10:01:03.985Z,1016.54
2018-01-23T10:03:05.412Z,1016.55
2018-01-23T10:05:06.821Z,1016.52
2018-01-23T10:07:08.250Z,1016.50
2018-01-23T10:09:09.671Z,1016.46
2018-01-23T10:11:11.090Z,1016.48
2018-01-23T10:13:12.505Z,1016.53
2018-01-23T10:15:13.923Z,1016.56
2018-01-23T10:17:15.414Z,1016.48
2018-01-23T10:19:16.831Z,1016.48
2018-01-23T10:21:18.247Z,1016.49
2018-01-23T10:23:19.659Z,1016.48
2018-01-23T10:25:21.105Z,1016.39
2018-01-23T10:27:22.583Z,1016.39
2018-01-23T10:29:24.000Z,1016.43
2018-01-23T10:31:25.409Z,1016.44
2018-01-23T10:33:26.822Z,1016.48
2018-01-23T10:35:28.250Z,1016.46
2018-01-23T10:37:29.662Z,1016.40
2018-01-23T10:39:31.080Z,1016.45
2018-01-23T10:41:32.497Z,1016.42
2018-01-23T10:43:33.917Z,1016.46
2018-01-23T10:45:35.376Z,1016.43
2018-01-23T10:47:36.872Z,1016.45
2018-01-23T10:49:38.417Z,1016.46
2018-01-23T10:51:39.868Z,1016.45
2018-01-23T10:53:41.278Z,1016.41
2018-01-23T10:55:42.690Z,1016.39
2018-01-23T10:57:44.125Z,1016.34
2018-01-23T10:59:45.534Z,1016.32
2018-01-23T11:01:47.040Z,1016.27
2018-01-23T11:03:48.459Z,1016.26
2018-01-23T11:05:49.875Z,1016.25
2018-01-23T11:07:51.292Z,1016.23
2018-01-23T11:09:52.701Z,1016.26
2018-01-23T11:11:54.128Z,1016.20
2018-01-23T11:13:55.551Z,1016.24
2018-01-23T11:15:56.952Z,1016.19
2018-01-23T11:17:58.377Z,1016.21
2018-01-23T11:19:59.791Z,1016.19
2018-01-23T11:22:01.210Z,1016.22
2018-01-23T11:24:02.624Z,1016.20
2018-01-23T11:26:04.101Z,1016.16
2018-01-23T11:28:05.601Z,1016.14
2018-01-23T11:30:07.055Z,1016.09
2018-01-23T11:32:08.580Z,1016.10
2018-01-23T11:34:09.988Z,1016.14
2018-01-23T11:36:11.411Z,1016.14
2018-01-23T11:38:12.825Z,1016.11
2018-01-23T11:40:14.247Z,1016.10
2018-01-23T11:42:15.793Z,1016.08
2018-01-23T11:44:17.267Z,1016.06
2018-01-23T11:46:18.716Z,1016.00
2018-01-23T11:48:20.252Z,1016.00
2018-01-23T11:50:21.704Z,1015.92
2018-01-23T11:52:23.146Z,1015.85
2018-01-23T11:54:24.597Z,1015.79
2018-01-23T11:56:26.040Z,1015.78
2018-01-23T11:58:27.483Z,1015.74
2018-01-23T12:00:28.901Z,1015.74
2018-01-23T12:02:30.313Z,1015.71
2018-01-23T12:04:31.729Z,1015.68
2018-01-23T12:06:33.145Z,1015.73
2018-01-23T12:08:34.563Z,1015.71
2018-01-23T12:10:35.979Z,1015.62
2018-01-23T12:12:37.390Z,1015.58
2018-01-23T12:14:38.809Z,1015.53
2018-01-23T12:16:40.224Z,1015.48
2018-01-23T12:18:41.640Z,1015.49
2018-01-23T12:20:43.046Z,1015.44
2018-01-23T12:22:44.464Z,1015.46
2018-01-23T12:24:45.884Z,1015.46
2018-01-23T12:26:47.301Z,1015.48
2018-01-23T12:28:48.714Z,1015.50
2018-01-23T12:30:50.149Z,1015.40
2018-01-23T12:32:51.561Z,1015.48
2018-01-23T12:34:52.979Z,1015.40
2018-01-23T12:36:54.397Z,1015.39
2018-01-23T12:38:55.817Z,1015.45
2018-01-23T12:40:57.239Z,1015.39
2018-01-23T12:42:58.652Z,1015.37
2018-01-23T12:45:00.068Z,1015.36
2018-01-23T12:47:01.524Z,1015.28
2018-01-23T12:49:02.945Z,1015.24
2018-01-23T12:51:04.359Z,1015.27
2018-01-23T12:53:05.800Z,1015.34
2018-01-23T12:55:07.270Z,1015.18
2018-01-23T12:57:08.684Z,1015.15
2018-01-23T12:59:10.100Z,1015.18
2018-01-23T13:01:11.535Z,1015.19
2018-01-23T13:03:12.947Z,1015.17
2018-01-23T13:05:14.370Z,1015.10
2018-01-23T13:07:15.784Z,1015.11
2018-01-23T13:09:17.200Z,1015.08
2018-01-23T13:11:18.614Z,1015.02
2018-01-23T13:13:20.139Z,1014.99
2018-01-23T13:15:21.640Z,1014.97
2018-01-23T13:17:23.105Z,1014.90
2018-01-23T13:19:24.557Z,1014.88
2018-01-23T13:21:25.981Z,1014.91
2018-01-23T13:23:27.396Z,1014.97
2018-01-23T13:25:28.812Z,1014.89
2018-01-23T13:27:30.234Z,1014.78
2018-01-23T13:29:31.652Z,1014.74
2018-01-23T13:31:33.068Z,1014.78
2018-01-23T13:33:34.484Z,1014.73
2018-01-23T13:35:35.906Z,1014.73
2018-01-23T13:37:37.324Z,1014.62
2018-01-23T13:39:38.738Z,1014.64
2018-01-23T13:41:40.153Z,1014.64
2018-01-23T13:43:41.568Z,1014.56
2018-01-23T13:45:42.987Z,1014.60
2018-01-23T13:47:44.400Z,1014.49
2018-01-23T13:49:45.816Z,1014.45
2018-01-23T13:51:47.289Z,1014.39
2018-01-23T13:53:48.707Z,1014.40
2018-01-23T13:55:50.122Z,1014.45
2018-01-23T13:57:51.538Z,1014.45
2018-01-23T13:59:52.953Z,1014.37
2018-01-23T14:01:54.373Z,1014.35
2018-01-23T14:03:56.051Z,1014.29
2018-01-23T14:05:57.842Z,1014.35
2018-01-23T14:07:59.258Z,1014.32
2018-01-23T14:10:00.721Z,1014.16
2018-01-23T14:12:02.173Z,1014.33
2018-01-23T14:14:03.652Z,1014.12
2018-01-23T14:16:05.085Z,1014.10
2018-01-23T14:18:06.501Z,1014.14
2018-01-23T14:20:07.925Z,1014.16
2018-01-23T14:22:09.370Z,1014.19
2018-01-23T14:24:10.786Z,1014.13
2018-01-23T14:26:12.201Z,1014.13
2018-01-23T14:28:13.620Z,1014.12
2018-01-23T14:30:15.060Z,1014.20
2018-01-23T14:32:16.473Z,1014.12
2018-01-23T14:34:58.875Z,1014.04
2018-01-23T14:37:00.292Z,1013.98
2018-01-23T14:39:01.705Z,1013.86
2018-01-23T14:41:03.120Z,1013.90
2018-01-23T14:43:04.536Z,1013.91
2018-01-23T14:45:05.953Z,1013.94
2018-01-23T14:47:07.371Z,1013.90
2018-01-23T14:49:08.787Z,1013.86
2018-01-23T14:51:10.203Z,1013.82
2018-01-23T14:53:11.622Z,1013.83
2018-01-23T14:55:54.009Z,1013.78
2018-01-23T14:57:55.424Z,1013.69
2018-01-23T14:59:56.839Z,1013.66
2018-01-23T15:01:58.256Z,1013.65
2018-01-23T15:03:59.732Z,1013.73
2018-01-23T15:06:01.154Z,1013.70
2018-01-23T15:08:02.644Z,1013.71
2018-01-23T15:10:04.013Z,1013.67
2018-01-23T15:12:05.428Z,1013.71
2018-01-23T15:14:47.858Z,1013.59
2018-01-23T15:16:49.267Z,1013.62
2018-01-23T15:18:50.812Z,1013.65
2018-01-23T15:20:52.220Z,1013.65
2018-01-23T15:22:53.632Z,1013.60
2018-01-23T15:24:55.045Z,1013.61
2018-01-23T15:26:56.455Z,1013.63
2018-01-23T15:28:57.875Z,1013.62
2018-01-23T15:30:59.276Z,1013.65
2018-01-23T15:33:41.668Z,1013.58
2018-01-23T15:35:43.072Z,1013.62
2018-01-23T15:37:44.489Z,1013.61
2018-01-23T15:39:45.909Z,1013.63
2018-01-23T15:41:47.321Z,1013.57
2018-01-23T15:43:48.731Z,1013.49
2018-01-23T15:45:50.144Z,1013.53
2018-01-23T15:47:51.559Z,1013.43
2018-01-23T15:49:52.967Z,1013.50
2018-01-23T15:51:54.377Z,1013.50
2018-01-23T15:53:55.795Z,1013.48
2018-01-23T15:55:57.204Z,1013.50
2018-01-23T15:57:58.613Z,1013.50
2018-01-23T16:00:00.052Z,1013.53
2018-01-23T16:02:01.439Z,1013.53
2018-01-23T16:04:02.843Z,1013.58
2018-01-23T16:06:04.268Z,1013.50
2018-01-23T16:08:45.668Z,1013.47
2018-01-23T16:10:47.130Z,1013.46
2018-01-23T16:12:48.540Z,1013.50
2018-01-23T16:14:49.968Z,1013.41
2018-01-23T16:16:51.397Z,1013.43
2018-01-23T16:18:52.908Z,1013.36
2018-01-23T16:20:54.332Z,1013.36
2018-01-23T16:22:55.745Z,1013.33
2018-01-23T16:24:57.166Z,1013.29
2018-01-23T16:26:58.579Z,1013.31
2018-01-23T16:28:59.988Z,1013.24
2018-01-23T16:31:01.397Z,1013.23
2018-01-23T16:33:02.897Z,1013.27
2018-01-23T16:35:04.319Z,1013.15
2018-01-23T16:37:05.735Z,1013.13
2018-01-23T16:39:07.146Z,1013.17
2018-01-23T16:41:08.559Z,1013.20
2018-01-23T16:43:09.968Z,1013.23
2018-01-23T16:45:11.405Z,1013.20
2018-01-23T16:47:53.788Z,1013.26
2018-01-23T16:49:55.218Z,1013.20
2018-01-23T16:51:56.635Z,1013.15
2018-01-23T16:53:58.044Z,1013.19
2018-01-23T16:55:59.580Z,1013.10
2018-01-23T16:58:00.950Z,1013.18
2018-01-23T17:00:02.474Z,1013.19
2018-01-23T17:02:04.289Z,1013.16
2018-01-23T17:04:06.023Z,1013.18
2018-01-23T17:06:07.427Z,1013.19
2018-01-23T17:08:08.868Z,1013.12
2018-01-23T17:10:10.344Z,1013.16
2018-01-23T17:12:11.950Z,1013.12
2018-01-23T17:14:13.479Z,1013.16
2018-01-23T17:16:14.956Z,1013.10
2018-01-23T17:18:16.414Z,1013.08
2018-01-23T17:20:17.876Z,1013.09
2018-01-23T17:22:19.344Z,1013.05
2018-01-23T17:24:20.957Z,1013.05
2018-01-23T17:26:22.443Z,1013.07
2018-01-23T17:29:04.835Z,1013.09
2018-01-23T17:31:06.249Z,1013.12
2018-01-23T17:33:07.742Z,1013.09
2018-01-23T17:35:09.554Z,1013.07
2018-01-23T17:37:11.000Z,1013.02
2018-01-23T17:39:12.393Z,1013.06
2018-01-23T17:41:13.864Z,1013.04
2018-01-23T17:43:15.289Z,1013.04
2018-01-23T17:45:16.707Z,1013.13
2018-01-23T17:47:18.127Z,1013.12
2018-01-23T17:50:00.561Z,1013.05
2018-01-23T17:52:02.078Z,1012.92
2018-01-23T17:54:03.496Z,1012.87
2018-01-23T17:56:04.906Z,1012.99
2018-01-23T17:58:06.334Z,1012.86
2018-01-23T18:00:07.812Z,1012.83
2018-01-23T18:02:09.224Z,1012.79
2018-01-23T18:04:10.638Z,1012.78
2018-01-23T18:06:12.047Z,1012.91
2018-01-23T18:08:13.458Z,1012.77
2018-01-23T18:10:14.868Z,1012.74
2018-01-23T18:12:16.313Z,1012.75
2018-01-23T18:14:17.699Z,1012.75
2018-01-23T18:16:19.166Z,1012.74
2018-01-23T18:18:20.576Z,1012.65
2018-01-23T18:20:21.994Z,1012.61
2018-01-23T18:22:23.416Z,1012.65
2018-01-23T18:24:24.850Z,1012.56
2018-01-23T18:26:26.281Z,1012.50
2018-01-23T18:29:08.688Z,1012.44
2018-01-23T18:31:10.105Z,1012.42
2018-01-23T18:33:11.526Z,1012.42
2018-01-23T18:35:12.938Z,1012.45
2018-01-23T18:37:14.351Z,1012.43
2018-01-23T18:39:15.761Z,1012.39
2018-01-23T18:41:17.168Z,1012.41
2018-01-23T18:43:18.580Z,1012.36
2018-01-23T18:45:19.993Z,1012.44
2018-01-23T18:48:03.153Z,1012.50
2018-01-23T18:50:04.564Z,1012.55
2018-01-23T18:52:05.972Z,1012.51
2018-01-23T18:54:07.396Z,1012.60
2018-01-23T18:56:08.806Z,1012.56
2018-01-23T18:58:10.211Z,1012.53
2018-01-23T19:00:11.628Z,1012.52
2018-01-23T19:02:13.043Z,1012.47
2018-01-23T19:04:14.449Z,1012.52
2018-01-23T19:06:56.832Z,1012.50
2018-01-23T19:08:58.244Z,1012.57
2018-01-23T19:10:59.659Z,1012.60
2018-01-23T19:13:01.071Z,1012.64
2018-01-23T19:15:02.504Z,1012.56
2018-01-23T19:17:03.909Z,1012.58
2018-01-23T19:19:05.313Z,1012.58
2018-01-23T19:21:06.720Z,1012.50
2018-01-23T19:23:08.134Z,1012.52
2018-01-23T19:25:09.548Z,1012.55
2018-01-23T19:27:51.949Z,1012.55
2018-01-23T19:29:53.351Z,1012.56
2018-01-23T19:31:54.763Z,1012.51
2018-01-23T19:33:56.187Z,1012.50
2018-01-23T19:35:57.597Z,1012.48
2018-01-23T19:37:59.011Z,1012.61
2018-01-23T19:40:00.424Z,1012.60
2018-01-23T19:42:01.837Z,1012.59
2018-01-23T19:44:03.242Z,1012.65
2018-01-23T19:46:45.637Z,1012.62
2018-01-23T19:48:47.049Z,1012.60
2018-01-23T19:50:49.382Z,1012.49
2018-01-23T19:52:50.793Z,1012.43
2018-01-23T19:54:52.829Z,1012.38
2018-01-23T19:56:54.242Z,1012.35
2018-01-23T19:58:56.180Z,1012.29
2018-01-23T20:00:58.191Z,1012.36
2018-01-23T20:02:58.981Z,1012.33
2018-01-23T20:05:00.387Z,1012.21
2018-01-23T20:07:01.813Z,1012.28
2018-01-23T20:09:03.690Z,1012.19
2018-01-23T20:11:04.687Z,1012.20
2018-01-23T20:13:06.102Z,1012.13
2018-01-23T20:15:07.522Z,1012.34
2018-01-23T20:17:08.937Z,1012.30
2018-01-23T20:19:11.196Z,1012.20
2018-01-23T20:21:11.700Z,1012.13
2018-01-23T20:23:13.918Z,1012.17
2018-01-23T20:25:56.260Z,1012.19
2018-01-23T20:27:58.410Z,1012.18
2018-01-23T20:29:59.825Z,1012.04
2018-01-23T20:32:02.887Z,1012.03
2018-01-23T20:34:04.297Z,1012.00
2018-01-23T20:36:05.770Z,1012.08
2018-01-23T20:38:07.149Z,1012.06
2018-01-23T20:40:08.635Z,1012.05
2018-01-23T20:42:10.221Z,1012.03
2018-01-23T20:44:11.665Z,1012.03
2018-01-23T20:46:54.041Z,1012.03
2018-01-23T20:48:55.454Z,1012.02
2018-01-23T20:50:56.868Z,1012.05
2018-01-23T20:52:58.280Z,1011.99
2018-01-23T20:54:59.699Z,1012.07
2018-01-23T20:57:01.101Z,1012.13
2018-01-23T20:59:02.512Z,1012.07
2018-01-23T21:01:03.927Z,1012.18
2018-01-23T21:03:05.331Z,1012.09
2018-01-23T21:05:06.737Z,1012.15
2018-01-23T21:07:08.152Z,1012.19
2018-01-23T21:09:09.562Z,1012.16
2018-01-23T21:11:10.971Z,1012.11
2018-01-23T21:13:12.381Z,1012.14
2018-01-23T21:15:13.857Z,1012.16
2018-01-23T21:17:15.264Z,1012.12
2018-01-23T21:19:16.676Z,1012.02
2018-01-23T21:21:18.087Z,1012.10
2018-01-23T21:23:19.495Z,1012.15
2018-01-23T21:25:20.910Z,1012.11
2018-01-23T21:27:22.346Z,1012.06
2018-01-23T21:29:23.860Z,1012.15
2018-01-23T21:31:25.258Z,1011.97
2018-01-23T21:33:26.681Z,1012.14
2018-01-23T21:35:28.083Z,1012.16
2018-01-23T21:37:29.496Z,1012.12
2018-01-23T21:39:30.920Z,1012.16
2018-01-23T21:41:32.332Z,1012.14
2018-01-23T21:43:33.746Z,1012.06
2018-01-23T21:45:35.454Z,1012.04
2018-01-23T21:47:36.975Z,1012.05
2018-01-23T21:49:38.411Z,1012.06
2018-01-23T21:51:39.843Z,1012.01
2018-01-23T21:53:41.303Z,1012.03
2018-01-23T21:55:42.755Z,1012.14
2018-01-23T21:57:44.230Z,1012.11
2018-01-23T21:59:45.667Z,1012.12
2018-01-23T22:01:47.118Z,1012.11
2018-01-23T22:03:48.563Z,1012.06
2018-01-23T22:05:50.036Z,1011.98
2018-01-23T22:07:51.486Z,1011.97
2018-01-23T22:09:53.159Z,1012.01
2018-01-23T22:11:54.726Z,1012.03
2018-01-23T22:13:56.333Z,1012.04
2018-01-23T22:15:58.004Z,1011.97
2018-01-23T22:17:59.546Z,1011.95
2018-01-23T22:20:01.018Z,1011.96
2018-01-23T22:22:02.468Z,1011.99
2018-01-23T22:24:03.941Z,1011.96
2018-01-23T22:26:05.369Z,1011.93
2018-01-23T22:28:06.809Z,1011.94
2018-01-23T22:30:08.217Z,1011.96
2018-01-23T22:32:09.628Z,1011.78
2018-01-23T22:34:11.040Z,1011.82
2018-01-23T22:36:12.526Z,1011.71
2018-01-23T22:38:14.040Z,1011.89
2018-01-23T22:40:15.888Z,1011.79
2018-01-23T22:42:17.976Z,1011.76
2018-01-23T22:44:19.435Z,1011.78
2018-01-23T22:46:21.094Z,1011.82
2018-01-23T22:48:22.519Z,1011.86
2018-01-23T22:50:23.944Z,1011.84
2018-01-23T22:52:25.363Z,1011.96
2018-01-23T22:54:26.771Z,1012.00
2018-01-23T22:56:28.183Z,1011.89
2018-01-23T22:58:29.596Z,1011.99
2018-01-23T23:00:31.008Z,1011.95
2018-01-23T23:02:32.417Z,1011.98
2018-01-23T23:04:33.826Z,1011.99
2018-01-23T23:06:35.242Z,1012.00
2018-01-23T23:08:36.728Z,1012.01
2018-01-23T23:10:38.148Z,1011.97
2018-01-23T23:12:39.560Z,1011.98
2018-01-23T23:14:41.063Z,1012.03
2018-01-23T23:16:42.447Z,1012.04
2018-01-23T23:18:43.883Z,1012.05
2018-01-23T23:20:45.311Z,1012.09
2018-01-23T23:22:46.790Z,1012.12
2018-01-23T23:24:48.206Z,1012.08
2018-01-23T23:26:49.660Z,1012.11
2018-01-23T23:28:51.970Z,1012.11
2018-01-23T23:30:53.558Z,1012.16
2018-01-23T23:32:54.986Z,1012.12
2018-01-23T23:34:56.436Z,1012.14
2018-01-23T23:36:57.848Z,1012.12
2018-01-23T23:38:59.271Z,1012.17
2018-01-23T23:41:00.687Z,1012.13
2018-01-23T23:43:02.104Z,1012.15
2018-01-23T23:45:03.517Z,1012.17
2018-01-23T23:47:04.927Z,1012.09
2018-01-23T23:49:06.402Z,1012.09
2018-01-23T23:51:07.828Z,1012.04
2018-01-23T23:53:09.246Z,1012.00
2018-01-23T23:55:10.651Z,1011.94
2018-01-23T23:57:12.066Z,1011.95
2018-01-23T23:59:13.640Z,1011.93
